GBACN CYRV-CYLW
Flight info
| Callsign | GBACN |
|---|---|
| Flight time | N/A |
| Altitude | 8500 |
| Route | YNY 6K LW |
| Aircraft | C172/L-VGD/C |
Departure
| Time | 2026-04-13 23:23 |
|---|---|
| Airport | Revelstoke Airport (CYRV) |
Arrival
| Time | N/A |
|---|---|
| Airport | Kelowna International Airport (CYLW) |
| Time | Latitude | Longitude | Altitude | Speed | Heading |
|---|---|---|---|---|---|
| 2026-04-13 23:17 | 50.95903 | -118.17932 | 1459 ft | 0 kts | 316° |
| 2026-04-13 23:22 | 50.95947 | -118.17998 | 1459 ft | 29 kts | 314° |
| 2026-04-13 23:23 | 50.96205 | -118.18392 | 1464 ft | 72 kts | 316° |
| 2026-04-13 23:23 | 50.96609 | -118.19008 | 1605 ft | 83 kts | 317° |
| 2026-04-13 23:23 | 50.97035 | -118.19628 | 1850 ft | 80 kts | 317° |
| 2026-04-13 23:23 | 50.97446 | -118.20245 | 2060 ft | 82 kts | 315° |
| 2026-04-13 23:24 | 50.97851 | -118.20868 | 2283 ft | 82 kts | 317° |
| 2026-04-13 23:24 | 50.98689 | -118.22097 | 2696 ft | 82 kts | 310° |
| 2026-04-13 23:24 | 50.98928 | -118.22909 | 2885 ft | 85 kts | 276° |
| 2026-04-13 23:25 | 50.98882 | -118.23805 | 3121 ft | 80 kts | 261° |
| 2026-04-13 23:25 | 50.98797 | -118.24704 | 3298 ft | 82 kts | 266° |
| 2026-04-13 23:25 | 50.98726 | -118.25597 | 3493 ft | 84 kts | 261° |
| 2026-04-13 23:25 | 50.98617 | -118.26497 | 3706 ft | 82 kts | 261° |
| 2026-04-13 23:26 | 50.98569 | -118.27419 | 3875 ft | 85 kts | 266° |
| 2026-04-13 23:26 | 50.98394 | -118.28295 | 4167 ft | 79 kts | 250° |
| 2026-04-13 23:26 | 50.98181 | -118.29158 | 4292 ft | 87 kts | 248° |
| 2026-04-13 23:26 | 50.97933 | -118.29985 | 4504 ft | 86 kts | 241° |
| 2026-04-13 23:27 | 50.97613 | -118.30782 | 4764 ft | 79 kts | 241° |
| 2026-04-13 23:27 | 50.97334 | -118.31600 | 4854 ft | 89 kts | 244° |
| 2026-04-13 23:27 | 50.97077 | -118.32421 | 5074 ft | 85 kts | 246° |
| 2026-04-13 23:27 | 50.96814 | -118.33284 | 5256 ft | 82 kts | 245° |
| 2026-04-13 23:28 | 50.96571 | -118.34141 | 5360 ft | 90 kts | 254° |
| 2026-04-13 23:28 | 50.96410 | -118.35046 | 5557 ft | 85 kts | 253° |
| 2026-04-13 23:28 | 50.96198 | -118.35949 | 5708 ft | 85 kts | 246° |
| 2026-04-13 23:28 | 50.95894 | -118.36773 | 5846 ft | 89 kts | 239° |
| 2026-04-13 23:29 | 50.95572 | -118.37579 | 6038 ft | 85 kts | 239° |
| 2026-04-13 23:29 | 50.95227 | -118.38372 | 6149 ft | 89 kts | 235° |
| 2026-04-13 23:29 | 50.94859 | -118.39133 | 6322 ft | 88 kts | 236° |
| 2026-04-13 23:29 | 50.94453 | -118.39869 | 6470 ft | 88 kts | 230° |
| 2026-04-13 23:30 | 50.94072 | -118.40620 | 6634 ft | 89 kts | 234° |
| 2026-04-13 23:30 | 50.93670 | -118.41356 | 6801 ft | 88 kts | 228° |
| 2026-04-13 23:30 | 50.93264 | -118.42086 | 7003 ft | 86 kts | 233° |
| 2026-04-13 23:30 | 50.92884 | -118.42862 | 7128 ft | 90 kts | 234° |
| 2026-04-13 23:31 | 50.92504 | -118.43626 | 7276 ft | 90 kts | 235° |
| 2026-04-13 23:31 | 50.92125 | -118.44419 | 7428 ft | 89 kts | 235° |
| 2026-04-13 23:31 | 50.91763 | -118.45202 | 7563 ft | 91 kts | 234° |
| 2026-04-13 23:31 | 50.91347 | -118.45936 | 7735 ft | 89 kts | 228° |
| 2026-04-13 23:32 | 50.90960 | -118.46711 | 7892 ft | 88 kts | 236° |
| 2026-04-13 23:32 | 50.90530 | -118.47429 | 8013 ft | 91 kts | 223° |
| 2026-04-13 23:32 | 50.90045 | -118.48052 | 8167 ft | 90 kts | 223° |
| 2026-04-13 23:32 | 50.89561 | -118.48699 | 8301 ft | 90 kts | 222° |
| 2026-04-13 23:33 | 50.89059 | -118.49310 | 8408 ft | 94 kts | 213° |
| 2026-04-13 23:33 | 50.88500 | -118.49797 | 8526 ft | 96 kts | 212° |
| 2026-04-13 23:33 | 50.87893 | -118.50389 | 8514 ft | 109 kts | 215° |
| 2026-04-13 23:33 | 50.87255 | -118.51071 | 8564 ft | 114 kts | 215° |
| 2026-04-13 23:34 | 50.86578 | -118.51818 | 8468 ft | 125 kts | 218° |
| 2026-04-13 23:34 | 50.85886 | -118.52692 | 8411 ft | 129 kts | 222° |
| 2026-04-13 23:34 | 50.85215 | -118.53636 | 8377 ft | 128 kts | 224° |
| 2026-04-13 23:34 | 50.84562 | -118.54597 | 8351 ft | 129 kts | 225° |
| 2026-04-13 23:35 | 50.83923 | -118.55575 | 8345 ft | 126 kts | 227° |
| 2026-04-13 23:35 | 50.83336 | -118.56549 | 8373 ft | 122 kts | 229° |
| 2026-04-13 23:35 | 50.82751 | -118.57553 | 8322 ft | 124 kts | 229° |
| 2026-04-13 23:35 | 50.82167 | -118.58545 | 8311 ft | 123 kts | 226° |
| 2026-04-13 23:36 | 50.81579 | -118.59517 | 8293 ft | 123 kts | 230° |
| 2026-04-13 23:36 | 50.81015 | -118.60527 | 8294 ft | 122 kts | 231° |
| 2026-04-13 23:36 | 50.80445 | -118.61538 | 8277 ft | 123 kts | 228° |
| 2026-04-13 23:36 | 50.79883 | -118.62550 | 8273 ft | 122 kts | 231° |
| 2026-04-13 23:37 | 50.79324 | -118.63571 | 8271 ft | 122 kts | 230° |
| 2026-04-13 23:37 | 50.78799 | -118.64610 | 8272 ft | 122 kts | 234° |
| 2026-04-13 23:37 | 50.78260 | -118.65651 | 8256 ft | 122 kts | 230° |
| 2026-04-13 23:37 | 50.77708 | -118.66675 | 8229 ft | 123 kts | 233° |
| 2026-04-13 23:38 | 50.77139 | -118.67681 | 8198 ft | 124 kts | 221° |
| 2026-04-13 23:38 | 50.76442 | -118.68449 | 8190 ft | 122 kts | 216° |
| 2026-04-13 23:38 | 50.75752 | -118.69216 | 8186 ft | 123 kts | 216° |
| 2026-04-13 23:38 | 50.75032 | -118.69948 | 8179 ft | 122 kts | 214° |
| 2026-04-13 23:39 | 50.74331 | -118.70691 | 8172 ft | 122 kts | 217° |
| 2026-04-13 23:39 | 50.73673 | -118.71551 | 8160 ft | 122 kts | 223° |
| 2026-04-13 23:39 | 50.73027 | -118.72418 | 8186 ft | 121 kts | 222° |
| 2026-04-13 23:39 | 50.72401 | -118.73297 | 8184 ft | 122 kts | 223° |
| 2026-04-13 23:40 | 50.71789 | -118.74231 | 8176 ft | 121 kts | 227° |
| 2026-04-13 23:40 | 50.71197 | -118.75171 | 8172 ft | 122 kts | 225° |
| 2026-04-13 23:40 | 50.70584 | -118.76098 | 8182 ft | 121 kts | 222° |
| 2026-04-13 23:40 | 50.69925 | -118.76920 | 8186 ft | 121 kts | 219° |
| 2026-04-13 23:41 | 50.69264 | -118.77737 | 8183 ft | 122 kts | 219° |
| 2026-04-13 23:41 | 50.68594 | -118.78570 | 8180 ft | 122 kts | 219° |
| 2026-04-13 23:41 | 50.67931 | -118.79394 | 8180 ft | 121 kts | 219° |
| 2026-04-13 23:41 | 50.67268 | -118.80218 | 8181 ft | 121 kts | 219° |
| 2026-04-13 23:42 | 50.66607 | -118.81040 | 8181 ft | 121 kts | 219° |
| 2026-04-13 23:42 | 50.65945 | -118.81864 | 8181 ft | 121 kts | 219° |
| 2026-04-13 23:42 | 50.65281 | -118.82690 | 8181 ft | 121 kts | 219° |
| 2026-04-13 23:42 | 50.64618 | -118.83516 | 8178 ft | 122 kts | 220° |
| 2026-04-13 23:43 | 50.63963 | -118.84336 | 8178 ft | 122 kts | 220° |
| 2026-04-13 23:43 | 50.63304 | -118.85163 | 8176 ft | 121 kts | 220° |
| 2026-04-13 23:43 | 50.62647 | -118.85988 | 8174 ft | 121 kts | 220° |
| 2026-04-13 23:43 | 50.61984 | -118.86822 | 8113 ft | 125 kts | 220° |
| 2026-04-13 23:44 | 50.61289 | -118.87703 | 7998 ft | 130 kts | 220° |
| 2026-04-13 23:44 | 50.60580 | -118.88612 | 7882 ft | 133 kts | 220° |
| 2026-04-13 23:44 | 50.59863 | -118.89539 | 7763 ft | 133 kts | 221° |
| 2026-04-13 23:44 | 50.59147 | -118.90473 | 7643 ft | 134 kts | 221° |
| 2026-04-13 23:45 | 50.58430 | -118.91416 | 7515 ft | 134 kts | 221° |
| 2026-04-13 23:45 | 50.57736 | -118.92330 | 7493 ft | 129 kts | 221° |
| 2026-04-13 23:45 | 50.57055 | -118.93226 | 7496 ft | 128 kts | 221° |
| 2026-04-13 23:45 | 50.56375 | -118.94117 | 7489 ft | 126 kts | 221° |
| 2026-04-13 23:46 | 50.55707 | -118.94990 | 7490 ft | 124 kts | 221° |
| 2026-04-13 23:46 | 50.55042 | -118.95858 | 7487 ft | 124 kts | 221° |
| 2026-04-13 23:46 | 50.54373 | -118.96718 | 7482 ft | 124 kts | 220° |
| 2026-04-13 23:46 | 50.53710 | -118.97570 | 7484 ft | 123 kts | 220° |
| 2026-04-13 23:47 | 50.53050 | -118.98425 | 7482 ft | 123 kts | 221° |
| 2026-04-13 23:47 | 50.52397 | -118.99269 | 7481 ft | 123 kts | 220° |
| 2026-04-13 23:47 | 50.51739 | -119.00113 | 7482 ft | 122 kts | 220° |
| 2026-04-13 23:47 | 50.51082 | -119.00955 | 7483 ft | 121 kts | 220° |
| 2026-04-13 23:48 | 50.50426 | -119.01796 | 7478 ft | 122 kts | 220° |
| 2026-04-13 23:48 | 50.49771 | -119.02636 | 7484 ft | 121 kts | 220° |
| 2026-04-13 23:48 | 50.49117 | -119.03475 | 7489 ft | 122 kts | 221° |
| 2026-04-13 23:48 | 50.48452 | -119.04333 | 7487 ft | 124 kts | 221° |
| 2026-04-13 23:49 | 50.47783 | -119.05197 | 7490 ft | 125 kts | 221° |
| 2026-04-13 23:49 | 50.47114 | -119.06064 | 7492 ft | 125 kts | 221° |
| 2026-04-13 23:49 | 50.46450 | -119.06925 | 7491 ft | 124 kts | 221° |
| 2026-04-13 23:49 | 50.45797 | -119.07771 | 7491 ft | 123 kts | 221° |
| 2026-04-13 23:50 | 50.45137 | -119.08626 | 7489 ft | 123 kts | 221° |
| 2026-04-13 23:50 | 50.44480 | -119.09480 | 7488 ft | 122 kts | 223° |
| 2026-04-13 23:50 | 50.44124 | -119.10641 | 7498 ft | 119 kts | 253° |
| 2026-04-13 23:50 | 50.43721 | -119.11784 | 7497 ft | 121 kts | 232° |
| 2026-04-13 23:51 | 50.43162 | -119.12752 | 7524 ft | 121 kts | 223° |
| 2026-04-13 23:51 | 50.42496 | -119.13569 | 7551 ft | 119 kts | 218° |
| 2026-04-13 23:51 | 50.41859 | -119.14406 | 7525 ft | 122 kts | 227° |
| 2026-04-13 23:51 | 50.41312 | -119.15384 | 7580 ft | 118 kts | 232° |
| 2026-04-13 23:52 | 50.40828 | -119.16431 | 7550 ft | 122 kts | 233° |
| 2026-04-13 23:52 | 50.40120 | -119.17192 | 7504 ft | 124 kts | 210° |
| 2026-04-13 23:52 | 50.39369 | -119.17859 | 7504 ft | 124 kts | 211° |
| 2026-04-13 23:52 | 50.38620 | -119.18526 | 7499 ft | 124 kts | 211° |
| 2026-04-13 23:53 | 50.37870 | -119.19194 | 7494 ft | 124 kts | 211° |